Drumore, PA (17518)

7:44 AM EST on February 09, 2016 (GMT -0500)
Harmony Ridge | | Change Station
CLOSE
Current Station
Personal Weather Station
Location: Quarryville, PA
Elevation: 518 ft
Nearby Weather Stations
Active Advisory: Winter Storm Warning

Elev 518 ft 39.80 °N, 76.23 °W | Updated 10 minutes ago

Snow
Snow
30.2 °F
Feels Like 30 °F
N
2.7
Wind Variable Wind from East

Today
High -- | Low -- °F
--% Chance of Precip.
Yesterday
High -- | Low -- °F
Precip. -- in
Pressure 29.60 in
Visibility 0.8 miles
Clouds
Windchill 30 °F
Dew Point 29 °F
Humidity 95%
Rainfall 0.00 in
Snow Depth Not available.
7:05 AM 5:33 PM
New Moon, 1% visible
SPECI KLNS 091237Z AUTO 08008KT 3/4SM -SN BR M02/M02 A2960 RMK AO2 FZRAE1159SNB1159B15 P0001 I1/// T10171022
Pressure 29.60 in
Visibility 0.8 miles
Clouds
Windchill 30 °F
Dew Point 29 °F
Humidity 95%
Rainfall 0.00 in
Snow Depth Not available.
7:05 AM 5:33 PM
New Moon, 1% visible
SPECI KLNS 091237Z AUTO 08008KT 3/4SM -SN BR M02/M02 A2960 RMK AO2 FZRAE1159SNB1159B15 P0001 I1/// T10171022

10-Day Weather Forecast

Almanac

Astronomy

Feb. 09, 2016 Rise Set
Actual Time
Civil Twilight
Nautical Twilight
Astronomical Twilight
Moon
Length of Visible Light
Length of Day
Tomorrow will be .
, % of the Moon is Illuminated

Today's Extremes

State Highs State Lows

Community

WunderPhotos

Upload Photos

1,891,589 photos uploaded!

WunderBlog® & News

Nearby

Air Quality

  Air Quality AQ Index Pollutant
Not available.

Snow Depth

Station Depth Elevation

Earthquake Activity

City Distance Mag. Time & Date
Minimum magnitude displayed is 2.5.

Coastal Water Temperatures

Place Temperature

Stations

Nearby Weather Stations

Station Location Temp. Windchill Dew Point Humidity Wind Precip. Elev Updated Type
                   

Watches & Warnings

Winter Storm Warning
Issued: 3:56 AM EST Feb. 9, 2016 – National Weather Service

... Winter Storm Warning now in effect until 1 am EST Wednesday...

* snow accumulations... 4 to 5 inches. The higher amounts will be
in the higher elevations and lower amounts will occur in the
valleys... especially around cities.

* Timing... snow will fall intermittently into the late evening.

* Impacts... untreated roads could be snow covered and slippery.
Some areas will see the snow melt as it falls during the day
since the temperature will hover within a degree or two of
freezing.

Precautionary/preparedness actions...

Dangerous winter weather conditions are expected or occurring.
Use caution if traveling. For the latest weather information... go
to weather.Gov/statecollege or monitor NOAA Weather Radio.

Report snow or ice accumulation to the National Weather Service
State College by sending an email to ctp.Stormreports@noaa.Gov...
posting to the NWS State College facebook Page... or tweet
@nwsstatecollege with the hashtag c... T... p... W... x.